39.1°F
Current conditions from King Hill
Updated every 5 minutes
 
  Thursday April 17, 2014

Station Historical Data
Daily Summary for March 21, 2012 Units:  Metric    English   Both
« Previous Day
Next Day »
Daily Weekly Monthly Yearly Custom
  High: Low: Average:
Temperature: 26.8 °C 12.9 °C 19.2 °C
Dew Point: 13.1 °C 6.9 °C 10.2 °C
Humidity: 79% 35% 58%
Wind Speed: 14.5km/h 0km/h 5.5km/h
Wind Gust: 24.1km/h - -
Wind- - SSW
Pressure: 1024.9 hPa 1019.9 hPa -
Precipitation: 0 mm    
Historical Graphs
 
 
Tabular Data for March 21, 2012
Time Temperature Dew Point Pressure Wind Wind Speed Wind Gust Humidity Daily Rainfall
00:00 14.7 °C 11.1 °C 1022.6 hPa Calm     79% 0 mm
00:05 14.6 °C 10.8 °C 1022.6 hPa Calm     78% 0 mm
00:10 14.4 °C 10.8 °C 1022.6 hPa Calm     79% 0 mm
00:15 14.3 °C 10.5 °C 1022.6 hPa Calm   1.6 km/h 78% 0 mm
00:20 14.3 °C 10.3 °C 1022.6 hPa NW 3.2 km/h 4.8 km/h 77% 0 mm
00:25 14.3 °C 10.3 °C 1022.6 hPa Calm   6.4 km/h 77% 0 mm
00:30 14.3 °C 10.3 °C 1022.6 hPa NW 1.6 km/h 6.4 km/h 77% 0 mm
00:40 14.8 °C 10.8 °C 1022.6 hPa SSW 4.8 km/h 8 km/h 77% 0 mm
00:45 15 °C 10.8 °C 1022.6 hPa Calm   8 km/h 76% 0 mm
00:50 15 °C 10.6 °C 1022.6 hPa SSW 4.8 km/h 8 km/h 75% 0 mm
00:55 15 °C 10.6 °C 1022.6 hPa Calm   8 km/h 75% 0 mm
01:00 14.9 °C 10.6 °C 1022.6 hPa SSW 1.6 km/h 8 km/h 75% 0 mm
01:05 14.7 °C 10.3 °C 1022.6 hPa SSW 3.2 km/h 8 km/h 75% 0 mm
01:10 14.6 °C 10.4 °C 1022.6 hPa Calm   8 km/h 76% 0 mm
01:15 14.6 °C 10.6 °C 1022.6 hPa SSW 4.8 km/h 8 km/h 77% 0 mm
01:20 14.7 °C 10.7 °C 1022.6 hPa SSW 3.2 km/h 9.7 km/h 77% 0 mm
01:25 15 °C 11 °C 1022.6 hPa SSW 6.4 km/h 11.3 km/h 77% 0 mm
01:30 15.4 °C 11.2 °C 1022.6 hPa SSW 6.4 km/h 11.3 km/h 76% 0 mm
01:35 15.8 °C 11.2 °C 1022.6 hPa SSW 8 km/h 14.5 km/h 74% 0 mm
01:40 16.1 °C 11.2 °C 1022.6 hPa SSW 8 km/h 17.7 km/h 73% 0 mm
01:45 16.1 °C 11 °C 1022.6 hPa SSW 6.4 km/h 17.7 km/h 72% 0 mm
01:50 15.9 °C 10.9 °C 1022.6 hPa SSW 8 km/h 12.9 km/h 72% 0 mm
01:55 15.8 °C 10.8 °C 1022.9 hPa SSW 6.4 km/h 12.9 km/h 72% 0 mm
02:00 15.7 °C 10.7 °C 1022.9 hPa SSW 8 km/h 12.9 km/h 72% 0 mm
02:05 15.7 °C 10.7 °C 1022.9 hPa SSW 8 km/h 12.9 km/h 72% 0 mm
02:10 15.6 °C 10.6 °C 1022.9 hPa SSW 6.4 km/h 12.9 km/h 72% 0 mm
02:15 15.3 °C 10.3 °C 1022.9 hPa SSW 6.4 km/h 11.3 km/h 72% 0 mm
02:20 15 °C 10 °C 1022.6 hPa SSW 4.8 km/h 9.7 km/h 72% 0 mm
02:25 15 °C 10.2 °C 1022.9 hPa SSW 6.4 km/h 9.7 km/h 73% 0 mm
02:30 14.6 °C 10.1 °C 1022.9 hPa SSW 4.8 km/h 9.7 km/h 74% 0 mm
02:35 14.3 °C 9.8 °C 1022.9 hPa SSW 4.8 km/h 9.7 km/h 74% 0 mm
02:40 14.4 °C 9.9 °C 1022.9 hPa SSW 6.4 km/h 9.7 km/h 74% 0 mm
02:45 14.6 °C 9.8 °C 1022.9 hPa SSW 3.2 km/h 9.7 km/h 73% 0 mm
02:50 14.7 °C 9.7 °C 1022.9 hPa SSW 4.8 km/h 9.7 km/h 72% 0 mm
02:55 14.7 °C 9.7 °C 1022.9 hPa SSW 4.8 km/h 8 km/h 72% 0 mm
03:00 14.7 °C 9.5 °C 1022.9 hPa SSW 3.2 km/h 8 km/h 71% 0 mm
03:05 14.6 °C 9.4 °C 1022.9 hPa SSW 3.2 km/h 8 km/h 71% 0 mm
03:10 14.6 °C 9.4 °C 1022.9 hPa SSW 3.2 km/h 8 km/h 71% 0 mm
03:15 14.6 °C 9.4 °C 1022.9 hPa SSW 3.2 km/h 8 km/h 71% 0 mm
03:20 14.6 °C 9.4 °C 1022.9 hPa SSW 4.8 km/h 8 km/h 71% 0 mm
03:25 14.7 °C 9.3 °C 1022.9 hPa SSW 3.2 km/h 8 km/h 70% 0 mm
03:30 14.8 °C 9.4 °C 1022.9 hPa SSW 3.2 km/h 8 km/h 70% 0 mm
03:35 14.9 °C 9.5 °C 1022.9 hPa SSW 6.4 km/h 11.3 km/h 70% 0 mm
03:40 14.9 °C 9.3 °C 1022.9 hPa SSW 4.8 km/h 11.3 km/h 69% 0 mm
03:50 14.8 °C 9.4 °C 1022.6 hPa SSW 6.4 km/h 11.3 km/h 70% 0 mm
03:55 15 °C 9.4 °C 1022.6 hPa SSW 4.8 km/h 11.3 km/h 69% 0 mm
04:00 14.8 °C 9.2 °C 1022.6 hPa SSW 6.4 km/h 11.3 km/h 69% 0 mm
04:05 14.9 °C 9.3 °C 1022.6 hPa SSW 6.4 km/h 11.3 km/h 69% 0 mm
04:10 14.8 °C 9.2 °C 1022.6 hPa SSW 6.4 km/h 12.9 km/h 69% 0 mm
04:15 14.7 °C 9.3 °C 1022.9 hPa SSW 6.4 km/h 12.9 km/h 70% 0 mm
04:20 14.5 °C 9.1 °C 1022.6 hPa SSW 4.8 km/h 11.3 km/h 70% 0 mm
04:25 14.4 °C 9 °C 1022.9 hPa SSW 8 km/h 12.9 km/h 70% 0 mm
04:30 14.4 °C 9.1 °C 1022.9 hPa SSW 8 km/h 12.9 km/h 70% 0 mm
04:35 14.6 °C 9.2 °C 1022.9 hPa SSW 8 km/h 11.3 km/h 70% 0 mm
04:40 14.7 °C 9.3 °C 1022.9 hPa SSW 6.4 km/h 11.3 km/h 70% 0 mm
04:50 14.8 °C 9.4 °C 1022.9 hPa SSW 8 km/h 12.9 km/h 70% 0 mm
04:55 14.8 °C 9.4 °C 1022.9 hPa SSW 8 km/h 12.9 km/h 70% 0 mm
05:00 14.7 °C 9.3 °C 1022.9 hPa SSW 8 km/h 12.9 km/h 70% 0 mm
05:05 14.7 °C 9.3 °C 1022.9 hPa SSW 8 km/h 12.9 km/h 70% 0 mm
05:10 14.5 °C 9.1 °C 1022.9 hPa SSW 8 km/h 11.3 km/h 70% 0 mm
05:15 14.4 °C 9.3 °C 1022.9 hPa SSW 6.4 km/h 11.3 km/h 71% 0 mm
05:20 14.4 °C 9.3 °C 1022.9 hPa SSW 8 km/h 11.3 km/h 71% 0 mm
05:25 14.4 °C 9.3 °C 1022.9 hPa SSW 8 km/h 11.3 km/h 71% 0 mm
05:30 14.5 °C 9.3 °C 1022.9 hPa SSW 8 km/h 11.3 km/h 71% 0 mm
05:35 14.5 °C 9.3 °C 1023.2 hPa SSW 6.4 km/h 11.3 km/h 71% 0 mm
05:40 14.4 °C 9.3 °C 1023.2 hPa SSW 8 km/h 11.3 km/h 71% 0 mm
05:45 14.4 °C 9.2 °C 1023.2 hPa SSW 8 km/h 11.3 km/h 71% 0 mm
05:50 14.4 °C 9.2 °C 1023.2 hPa SSW 4.8 km/h 11.3 km/h 71% 0 mm
05:55 14.3 °C 9.2 °C 1023.6 hPa SSW 3.2 km/h 9.7 km/h 71% 0 mm
06:00 14.2 °C 9 °C 1023.6 hPa SSW 3.2 km/h 9.7 km/h 71% 0 mm
06:05 14.1 °C 9.1 °C 1023.6 hPa SSW 4.8 km/h 8 km/h 72% 0 mm
06:10 14 °C 9.1 °C 1023.6 hPa SSW 4.8 km/h 11.3 km/h 72% 0 mm
06:15 14.2 °C 9.2 °C 1023.6 hPa SSW 8 km/h 11.3 km/h 72% 0 mm
06:20 14.4 °C 9.4 °C 1023.6 hPa SSW 9.7 km/h 14.5 km/h 72% 0 mm
06:25 14.4 °C 9.4 °C 1023.6 hPa SSW 6.4 km/h 14.5 km/h 72% 0 mm
06:30 14.3 °C 9.3 °C 1023.9 hPa SSW 8 km/h 14.5 km/h 72% 0 mm
06:40 14.2 °C 9.2 °C 1023.9 hPa SSW 3.2 km/h 14.5 km/h 72% 0 mm
06:45 13.9 °C 9.1 °C 1023.9 hPa SSW 6.4 km/h 14.5 km/h 73% 0 mm
06:50 13.7 °C 8.9 °C 1023.9 hPa SSW 4.8 km/h 11.3 km/h 73% 0 mm
06:55 13.6 °C 9 °C 1023.9 hPa SSW 6.4 km/h 11.3 km/h 74% 0 mm
07:00 13.4 °C 8.9 °C 1023.9 hPa SSW 8 km/h 11.3 km/h 74% 0 mm
07:05 13.3 °C 8.7 °C 1024.3 hPa SSW 4.8 km/h 11.3 km/h 74% 0 mm
07:09 13.1 °C 8.7 °C 1024.3 hPa SSW 1.6 km/h 9.7 km/h 75% 0 mm
07:15 12.9 °C 8.8 °C 1024.3 hPa SSW 6.4 km/h 11.3 km/h 76% 0 mm
07:20 13.1 °C 9.1 °C 1024.3 hPa SSW 4.8 km/h 11.3 km/h 77% 0 mm
07:30 13.4 °C 9.2 °C 1024.3 hPa SSW 3.2 km/h 11.3 km/h 76% 0 mm
07:35 13.6 °C 9.4 °C 1024.3 hPa SSW 3.2 km/h 11.3 km/h 76% 0 mm
07:40 13.8 °C 9.7 °C 1024.6 hPa SSW 1.6 km/h 11.3 km/h 76% 0 mm
07:45 13.9 °C 9.8 °C 1024.6 hPa SSW 3.2 km/h 11.3 km/h 76% 0 mm
07:50 14.1 °C 9.9 °C 1024.6 hPa SSW 4.8 km/h 12.9 km/h 76% 0 mm
07:55 14.3 °C 9.9 °C 1024.6 hPa SSW 4.8 km/h 14.5 km/h 75% 0 mm
08:00 14.5 °C 10.1 °C 1024.6 hPa SSW 8 km/h 14.5 km/h 75% 0 mm
08:09 14.8 °C 10.4 °C 1024.6 hPa SSW 6.4 km/h 16.1 km/h 75% 0 mm
08:15 14.8 °C 10.2 °C 1024.6 hPa SSW 6.4 km/h 16.1 km/h 74% 0 mm
08:20 15 °C 10.4 °C 1024.6 hPa SSW 8 km/h 16.1 km/h 74% 0 mm
08:25 15 °C 10.4 °C 1024.6 hPa SSW 8 km/h 16.1 km/h 74% 0 mm
08:30 15.1 °C 10.5 °C 1024.6 hPa SSW 8 km/h 17.7 km/h 74% 0 mm
08:40 15.7 °C 10.6 °C 1024.6 hPa SSW 9.7 km/h 16.1 km/h 72% 0 mm
08:45 15.9 °C 10.8 °C 1024.6 hPa SSW 4.8 km/h 20.9 km/h 72% 0 mm
08:50 16.2 °C 10.9 °C 1024.6 hPa SSW 6.4 km/h 20.9 km/h 71% 0 mm
08:55 16.4 °C 10.9 °C 1024.6 hPa SSW 9.7 km/h 16.1 km/h 70% 0 mm
09:00 16.6 °C 11.3 °C 1024.6 hPa SSW 6.4 km/h 17.7 km/h 71% 0 mm
09:05 16.9 °C 11.4 °C 1024.6 hPa SSW 12.9 km/h 24.1 km/h 70% 0 mm
09:09 16.9 °C 11.2 °C 1024.6 hPa SSW 8 km/h 24.1 km/h 69% 0 mm
09:15 17.1 °C 11.4 °C 1024.6 hPa SSW 8 km/h 19.3 km/h 69% 0 mm
09:20 17.5 °C 11.6 °C 1024.6 hPa SSW 9.7 km/h 20.9 km/h 68% 0 mm
09:25 17.7 °C 11.7 °C 1024.6 hPa SW 8 km/h 20.9 km/h 68% 0 mm
09:30 17.8 °C 11.8 °C 1024.6 hPa SSW 11.3 km/h 19.3 km/h 68% 0 mm
09:35 17.9 °C 11.7 °C 1024.6 hPa SW 11.3 km/h 19.3 km/h 67% 0 mm
09:40 17.8 °C 11.6 °C 1024.6 hPa SSW 11.3 km/h 19.3 km/h 67% 0 mm
09:45 17.8 °C 11.6 °C 1024.6 hPa SW 14.5 km/h 22.5 km/h 67% 0 mm
09:55 18.1 °C 11.8 °C 1024.6 hPa SSW 6.4 km/h 19.3 km/h 67% 0 mm
10:00 18.2 °C 11.8 °C 1024.9 hPa SW 11.3 km/h 19.3 km/h 66% 0 mm
10:04 18.4 °C 12 °C 1024.9 hPa SW 8 km/h 17.7 km/h 66% 0 mm
10:10 18.7 °C 11.9 °C 1024.9 hPa SSW 8 km/h 19.3 km/h 65% 0 mm
10:14 18.8 °C 12.1 °C 1024.9 hPa SSW 6.4 km/h 19.3 km/h 65% 0 mm
10:20 19.2 °C 12.3 °C 1024.9 hPa SSW 3.2 km/h 16.1 km/h 64% 0 mm
10:25 19.8 °C 12.3 °C 1024.6 hPa SW 3.2 km/h 12.9 km/h 62% 0 mm
10:29 19.9 °C 11.9 °C 1024.6 hPa SSW 6.4 km/h 12.9 km/h 60% 0 mm
10:35 20.3 °C 12.6 °C 1024.6 hPa South 1.6 km/h 12.9 km/h 61% 0 mm
10:40 20.8 °C 12.6 °C 1024.6 hPa South 4.8 km/h 11.3 km/h 59% 0 mm
10:50 21.3 °C 12.7 °C 1024.6 hPa SW 4.8 km/h 8 km/h 58% 0 mm
11:00 21.6 °C 12.7 °C 1024.3 hPa Calm   11.3 km/h 57% 0 mm
11:05 21.8 °C 12.6 °C 1024.3 hPa SSW 8 km/h 11.3 km/h 56% 0 mm
11:10 22.1 °C 12.9 °C 1024.3 hPa Calm   11.3 km/h 56% 0 mm
11:15 22.2 °C 12.5 °C 1024.3 hPa SSE 1.6 km/h 11.3 km/h 54% 0 mm
11:20 22.3 °C 12.8 °C 1024.3 hPa South 1.6 km/h 11.3 km/h 55% 0 mm
11:25 22.4 °C 12.7 °C 1024.3 hPa Calm   11.3 km/h 54% 0 mm
11:30 22.3 °C 12.8 °C 1023.9 hPa West 1.6 km/h 9.7 km/h 55% 0 mm
11:34 22.2 °C 12.5 °C 1023.9 hPa Calm   12.9 km/h 54% 0 mm
11:40 22.3 °C 12.9 °C 1023.9 hPa Calm   12.9 km/h 55% 0 mm
11:45 22.8 °C 12.7 °C 1023.9 hPa SSW 3.2 km/h 11.3 km/h 53% 0 mm
11:55 23.3 °C 12.9 °C 1023.6 hPa SSW 4.8 km/h 11.3 km/h 52% 0 mm
12:00 23.2 °C 13.1 °C 1023.6 hPa Calm   11.3 km/h 53% 0 mm
12:05 23.2 °C 11.9 °C 1023.6 hPa West 1.6 km/h 14.5 km/h 49% 0 mm
12:10 23.4 °C 12.1 °C 1023.6 hPa Calm   14.5 km/h 49% 0 mm
12:15 23.7 °C 12.3 °C 1023.2 hPa Calm   9.7 km/h 49% 0 mm
12:20 23.9 °C 12.2 °C 1023.2 hPa WSW 1.6 km/h 8 km/h 48% 0 mm
12:24 24.1 °C 12.4 °C 1023.2 hPa WNW 1.6 km/h 8 km/h 48% 0 mm
12:30 24.2 °C 12.2 °C 1023.2 hPa West 3.2 km/h 11.3 km/h 47% 0 mm
12:35 24.3 °C 12.6 °C 1023.2 hPa Calm   11.3 km/h 48% 0 mm
12:45 24.2 °C 12.2 °C 1022.9 hPa West 1.6 km/h 12.9 km/h 47% 0 mm
12:50 24.2 °C 11.9 °C 1022.9 hPa WSW 3.2 km/h 12.9 km/h 46% 0 mm
12:55 24.2 °C 12.2 °C 1022.9 hPa WNW 3.2 km/h 12.9 km/h 47% 0 mm
12:59 24.4 °C 12.1 °C 1022.9 hPa West 3.2 km/h 12.9 km/h 46% 0 mm
13:04 24.4 °C 11.8 °C 1022.9 hPa West 3.2 km/h 14.5 km/h 45% 0 mm
13:10 24.6 °C 11.5 °C 1022.9 hPa SW 6.4 km/h 14.5 km/h 44% 0 mm
13:14 24.7 °C 11.6 °C 1022.6 hPa WSW 8 km/h 12.9 km/h 44% 0 mm
13:19 24.7 °C 11.7 °C 1022.6 hPa SSW 6.4 km/h 17.7 km/h 44% 0 mm
13:25 24.9 °C 10.8 °C 1022.6 hPa West 8 km/h 17.7 km/h 41% 0 mm
13:30 25.1 °C 10.9 °C 1022.2 hPa West 8 km/h 14.5 km/h 41% 0 mm
13:39 24.8 °C 10.7 °C 1022.2 hPa Calm   16.1 km/h 41% 0 mm
13:44 24.9 °C 10.8 °C 1021.9 hPa WNW 6.4 km/h 12.9 km/h 41% 0 mm
13:50 25.1 °C 11.7 °C 1021.9 hPa WSW 4.8 km/h 14.5 km/h 43% 0 mm
13:55 25.3 °C 11.2 °C 1021.9 hPa WNW 9.7 km/h 14.5 km/h 41% 0 mm
14:00 25.3 °C 11.4 °C 1021.9 hPa West 3.2 km/h 14.5 km/h 42% 0 mm
14:04 25.4 °C 11.2 °C 1021.9 hPa SW 1.6 km/h 12.9 km/h 41% 0 mm
14:10 25.4 °C 10.9 °C 1021.6 hPa SW 3.2 km/h 12.9 km/h 40% 0 mm
14:14 25.7 °C 11.4 °C 1021.6 hPa West 3.2 km/h 17.7 km/h 41% 0 mm
14:20 25.9 °C 11.3 °C 1021.6 hPa WSW 8 km/h 17.7 km/h 40% 0 mm
14:25 25.9 °C 10.9 °C 1021.6 hPa West 8 km/h 17.7 km/h 39% 0 mm
14:34 25.8 °C 10.8 °C 1021.2 hPa Calm   14.5 km/h 39% 0 mm
14:40 26.2 °C 10.7 °C 1021.2 hPa West 4.8 km/h 9.7 km/h 38% 0 mm
14:45 25.9 °C 10.9 °C 1021.2 hPa South 6.4 km/h 14.5 km/h 39% 0 mm
14:49 25.9 °C 10.9 °C 1021.2 hPa Calm   14.5 km/h 39% 0 mm
14:54 25.9 °C 10.9 °C 1020.9 hPa WSW 1.6 km/h 9.7 km/h 39% 0 mm
15:00 26.1 °C 10.7 °C 1020.9 hPa WNW 9.7 km/h 20.9 km/h 38% 0 mm
15:04 26.3 °C 10.4 °C 1020.9 hPa SW 9.7 km/h 20.9 km/h 37% 0 mm
15:10 26.1 °C 10.2 °C 1020.9 hPa SW 6.4 km/h 16.1 km/h 37% 0 mm
15:15 26 °C 10.2 °C 1020.9 hPa South 6.4 km/h 16.1 km/h 37% 0 mm
15:20 26.2 °C 10.7 °C 1020.9 hPa SW 3.2 km/h 14.5 km/h 38% 0 mm
15:25 26.3 °C 10.9 °C 1020.9 hPa West 6.4 km/h 16.1 km/h 38% 0 mm
15:30 26.6 °C 10.7 °C 1020.9 hPa SW 1.6 km/h 16.1 km/h 37% 0 mm
15:40 26.8 °C 10.1 °C 1020.5 hPa WSW 3.2 km/h 14.5 km/h 35% 0 mm
15:45 26.7 °C 10.8 °C 1020.5 hPa SW 3.2 km/h 16.1 km/h 37% 0 mm
15:55 26.1 °C 10.3 °C 1020.5 hPa SSW 3.2 km/h 20.9 km/h 37% 0 mm
15:59 26.3 °C 10.9 °C 1020.5 hPa SSW 3.2 km/h 20.9 km/h 38% 0 mm
16:05 26.5 °C 11.1 °C 1020.5 hPa Calm   12.9 km/h 38% 0 mm
16:09 26.6 °C 11.2 °C 1020.5 hPa WNW 4.8 km/h 11.3 km/h 38% 0 mm
16:14 26.5 °C 10.7 °C 1020.5 hPa SSW 4.8 km/h 11.3 km/h 37% 0 mm
16:20 26.3 °C 10.9 °C 1020.5 hPa SSW 3.2 km/h 11.3 km/h 38% 0 mm
16:25 26.6 °C 11.1 °C 1020.5 hPa South 4.8 km/h 11.3 km/h 38% 0 mm
16:29 26.7 °C 11.6 °C 1020.5 hPa SSW 1.6 km/h 11.3 km/h 39% 0 mm
16:35 26.4 °C 10.6 °C 1020.2 hPa SSW 3.2 km/h 14.5 km/h 37% 0 mm
16:40 26.6 °C 11.1 °C 1020.2 hPa SSW 1.6 km/h 14.5 km/h 38% 0 mm
16:49 26.2 °C 10.8 °C 1020.2 hPa South 3.2 km/h 12.9 km/h 38% 0 mm
16:54 26.3 °C 10.9 °C 1020.2 hPa SW 4.8 km/h 11.3 km/h 38% 0 mm
17:00 26.3 °C 11.3 °C 1020.2 hPa SW 4.8 km/h 16.1 km/h 39% 0 mm
17:04 26.2 °C 11.2 °C 1019.9 hPa SW 4.8 km/h 16.1 km/h 39% 0 mm
17:10 26.3 °C 10.8 °C 1019.9 hPa SW 4.8 km/h 14.5 km/h 38% 0 mm
17:14 26.2 °C 11.2 °C 1019.9 hPa SSW 8 km/h 16.1 km/h 39% 0 mm
17:19 25.9 °C 10.9 °C 1019.9 hPa SW 1.6 km/h 16.1 km/h 39% 0 mm
17:25 25.9 °C 10.9 °C 1020.2 hPa SSW 1.6 km/h 14.5 km/h 39% 0 mm
17:30 25.9 °C 10.9 °C 1020.2 hPa SW 4.8 km/h 12.9 km/h 39% 0 mm
17:39 25.8 °C 10.8 °C 1020.2 hPa SSW 4.8 km/h 12.9 km/h 39% 0 mm
17:45 25.6 °C 10.7 °C 1019.9 hPa SSW 3.2 km/h 12.9 km/h 39% 0 mm
17:50 25.6 °C 11 °C 1020.2 hPa Calm   12.9 km/h 40% 0 mm
17:54 25.6 °C 11 °C 1020.2 hPa SW 4.8 km/h 9.7 km/h 40% 0 mm
17:59 25.4 °C 10.9 °C 1020.2 hPa SW 8 km/h 11.3 km/h 40% 0 mm
18:04 25.3 °C 11.2 °C 1020.2 hPa SSW 1.6 km/h 11.3 km/h 41% 0 mm
18:10 25.3 °C 11.2 °C 1020.2 hPa SSW 1.6 km/h 9.7 km/h 41% 0 mm
18:14 25.2 °C 11.1 °C 1020.2 hPa Calm   8 km/h 41% 0 mm
18:19 25.1 °C 10.9 °C 1020.2 hPa Calm   1.6 km/h 41% 0 mm
18:25 24.9 °C 11.2 °C 1020.2 hPa South 1.6 km/h 6.4 km/h 42% 0 mm
18:29 24.8 °C 11 °C 1020.2 hPa Calm   6.4 km/h 42% 0 mm
18:34 24.6 °C 10.8 °C 1020.2 hPa Calm   1.6 km/h 42% 0 mm
18:40 24.4 °C 10.7 °C 1020.2 hPa Calm   1.6 km/h 42% 0 mm
18:50 23.8 °C 10.4 °C 1020.2 hPa Calm   4.8 km/h 43% 0 mm
18:59 21.9 °C 11.1 °C 1020.2 hPa Calm   1.6 km/h 50% 0 mm
19:05 21.3 °C 11.1 °C 1020.2 hPa Calm     52% 0 mm
19:09 20.9 °C 10.7 °C 1020.2 hPa Calm     52% 0 mm
19:14 20.7 °C 10.8 °C 1020.2 hPa Calm     53% 0 mm
19:19 20.3 °C 10.4 °C 1020.2 hPa Calm     53% 0 mm
19:25 20.1 °C 10.4 °C 1020.2 hPa Calm     54% 0 mm
19:29 19.8 °C 10.3 °C 1020.2 hPa Calm     54% 0 mm
19:34 19.7 °C 9.8 °C 1020.2 hPa Calm   1.6 km/h 53% 0 mm
19:39 19.5 °C 9.7 °C 1020.2 hPa Calm   3.2 km/h 53% 0 mm
19:44 19.4 °C 9.3 °C 1020.2 hPa Calm   3.2 km/h 52% 0 mm
19:50 19.7 °C 8.9 °C 1020.2 hPa Calm   4.8 km/h 50% 0 mm
19:54 19.8 °C 8.8 °C 1020.2 hPa Calm   4.8 km/h 49% 0 mm
19:59 19.8 °C 8.8 °C 1020.2 hPa SW 1.6 km/h 4.8 km/h 49% 0 mm
20:04 19.8 °C 8.5 °C 1020.2 hPa Calm   6.4 km/h 48% 0 mm
20:09 19.8 °C 8.5 °C 1020.5 hPa SSW 1.6 km/h 6.4 km/h 48% 0 mm
20:14 19.8 °C 8.5 °C 1020.5 hPa Calm   4.8 km/h 48% 0 mm
20:19 19.8 °C 8.5 °C 1020.5 hPa SSW 1.6 km/h 9.7 km/h 48% 0 mm
20:25 19.7 °C 8.4 °C 1020.2 hPa Calm   9.7 km/h 48% 0 mm
20:30 19.6 °C 8.3 °C 1020.2 hPa Calm   4.8 km/h 48% 0 mm
20:40 19.1 °C 8.4 °C 1020.5 hPa Calm   3.2 km/h 50% 0 mm
20:45 18.8 °C 8.2 °C 1020.5 hPa Calm   4.8 km/h 50% 0 mm
20:54 18.3 °C 8 °C 1020.5 hPa Calm   6.4 km/h 51% 0 mm
21:00 18.1 °C 8.1 °C 1020.5 hPa SSW 3.2 km/h 8 km/h 52% 0 mm
21:04 17.9 °C 8.2 °C 1020.2 hPa SSW 3.2 km/h 8 km/h 53% 0 mm
21:09 18.1 °C 8.3 °C 1020.2 hPa SSW 1.6 km/h 8 km/h 53% 0 mm
21:15 18.2 °C 8.2 °C 1020.2 hPa SSW 3.2 km/h 9.7 km/h 52% 0 mm
21:19 18.3 °C 8 °C 1020.2 hPa SSW 3.2 km/h 11.3 km/h 51% 0 mm
21:25 18.4 °C 7.8 °C 1020.2 hPa SSW 4.8 km/h 11.3 km/h 50% 0 mm
21:30 18.3 °C 7.7 °C 1020.2 hPa SSW 3.2 km/h 9.7 km/h 50% 0 mm
21:35 18.3 °C 7.7 °C 1020.5 hPa SSW 4.8 km/h 8 km/h 50% 0 mm
21:40 18.2 °C 7.3 °C 1020.5 hPa Calm   8 km/h 49% 0 mm
21:50 18.2 °C 7.3 °C 1020.5 hPa SSW 3.2 km/h 9.7 km/h 49% 0 mm
21:55 18.1 °C 6.9 °C 1020.5 hPa SSW 4.8 km/h 9.7 km/h 48% 0 mm
21:59 18.1 °C 6.9 °C 1020.5 hPa SSW 6.4 km/h 8 km/h 48% 0 mm
22:04 18.3 °C 7.1 °C 1020.5 hPa SSW 6.4 km/h 11.3 km/h 48% 0 mm
22:09 18.4 °C 6.9 °C 1020.5 hPa South 6.4 km/h 11.3 km/h 47% 0 mm
22:15 18.4 °C 6.9 °C 1020.5 hPa SSW 3.2 km/h 11.3 km/h 47% 0 mm
22:19 18.4 °C 6.9 °C 1020.5 hPa SSW 6.4 km/h 11.3 km/h 47% 0 mm
22:24 18.5 °C 7.3 °C 1020.5 hPa SSW 4.8 km/h 11.3 km/h 48% 0 mm
22:29 18.4 °C 7.2 °C 1020.5 hPa SSW 4.8 km/h 11.3 km/h 48% 0 mm
22:35 18.4 °C 7.2 °C 1020.5 hPa SSW 4.8 km/h 11.3 km/h 48% 0 mm
22:40 18.2 °C 7.3 °C 1020.5 hPa SSW 4.8 km/h 11.3 km/h 49% 0 mm
22:49 18.2 °C 7.3 °C 1020.2 hPa SSW 4.8 km/h 11.3 km/h 49% 0 mm
22:54 18.2 °C 7.6 °C 1020.2 hPa SSW 4.8 km/h 11.3 km/h 50% 0 mm
22:59 17.9 °C 7.4 °C 1020.2 hPa SSW 1.6 km/h 9.7 km/h 50% 0 mm
23:04 17.7 °C 7.4 °C 1020.2 hPa SSW 6.4 km/h 9.7 km/h 51% 0 mm
23:09 17.7 °C 7.4 °C 1020.2 hPa SSW 6.4 km/h 12.9 km/h 51% 0 mm
23:14 17.6 °C 7.3 °C 1020.2 hPa SSW 6.4 km/h 12.9 km/h 51% 0 mm
23:19 17.7 °C 7.4 °C 1020.2 hPa SSW 6.4 km/h 14.5 km/h 51% 0 mm
23:24 17.8 °C 7.6 °C 1020.2 hPa SSW 6.4 km/h 14.5 km/h 51% 0 mm
23:29 17.8 °C 7.8 °C 1020.2 hPa SSW 8 km/h 12.9 km/h 52% 0 mm
23:34 17.8 °C 7.8 °C 1020.2 hPa SSW 6.4 km/h 11.3 km/h 52% 0 mm
23:40 17.8 °C 7.8 °C 1020.2 hPa SSW 6.4 km/h 12.9 km/h 52% 0 mm
23:45 17.7 °C 7.7 °C 1020.2 hPa SSW 8 km/h 14.5 km/h 52% 0 mm
23:50 17.5 °C 7.8 °C 1020.2 hPa SSW 6.4 km/h 14.5 km/h 53% 0 mm
23:54 17.4 °C 7.8 °C 1020.2 hPa SSW 4.8 km/h 11.3 km/h 53% 0 mm
23:59 17.3 °C 7.9 °C 1020.2 hPa SSW 4.8 km/h 11.3 km/h 54% 0 mm
Westford Weather
Compliments of Weather Underground

 
 
Current Radar Loop:

Copyright © WestfordWeather.net 2007-2014. All rights reserved.